»·PEaware :: DAL494 KEWR-KJFK

DAL494 :: KEWR-KJFK

FLIGHT INFORMATION

Flight Status: Arrived
Operator:
Delta Air Lines
More flights by this operator :: More flights under this callsign
Pilot: Tamer M. (30101)
Aircraft: BOEING 737-700
(B737)
More flights by this aircraft type
Origin: KEWR Newark Intl
United States
Destination: KJFK Kennedy Intl
United States
More flights between these airports :: More routes between these airports
Route: EWR4 BREZY V39 CMK V419 JUDDS NELIE MAD V1 DPK
File this flight plan on PilotEdge
Remarks:
Altitude:
(Current/Filed)
11,000ft
Speed:
(Current/Filed)
367kts
Departed: 07-Dec-22 12:23 PM
Arrived: 07-Dec-22 01:05 PM
Distance/Time
Traveled:
18nm/0:42
Distance/Time
To Go:
Arrived

Flight Plot

Page will automatically refresh every two minutes.

Flight plan parsing failed; only flown route is shown


Map Options




Map Legend


Flown Route
Filed Route
Departure Airport
Arrival Airport
Navaid (VOR, NDB)
Fix

Horizontal Profiles

Position Reports

Time Latitude Longitude Heading Altitude Ground
Speed
07-Dec-22 12:05 40.697166 -74.174783 308 20ft 0kts
07-Dec-22 12:06 40.697166 -74.174783 308 20ft 0kts
07-Dec-22 12:07 40.697166 -74.174783 308 20ft 0kts
07-Dec-22 12:08 40.697166 -74.174783 308 20ft 0kts
07-Dec-22 12:09 40.697166 -74.174783 308 20ft 0kts
07-Dec-22 12:10 40.697166 -74.174783 308 20ft 0kts
07-Dec-22 12:11 40.697166 -74.174783 308 20ft 0kts
07-Dec-22 12:12 40.697166 -74.174783 308 20ft 0kts
07-Dec-22 12:13 40.696899 -74.174345 314 19ft 2kts
07-Dec-22 12:14 40.696805 -74.174154 35 19ft 0kts
07-Dec-22 12:15 40.696805 -74.174154 35 19ft 0kts
07-Dec-22 12:16 40.696941 -74.173993 51 20ft 5kts
07-Dec-22 12:17 40.695983 -74.171095 161 19ft 12kts
07-Dec-22 12:18 40.691732 -74.171884 205 16ft 18kts
07-Dec-22 12:19 40.683797 -74.176911 205 21ft 40kts
07-Dec-22 12:20 40.678223 -74.179437 115 20ft 0kts
07-Dec-22 12:21 40.678218 -74.179423 115 20ft 1kts
07-Dec-22 12:22 40.694237 -74.167325 27 362ft 161kts
07-Dec-22 12:24 40.730633 -74.123091 48 2828ft 233kts
07-Dec-22 12:25 40.791556 -74.096630 321 5819ft 270kts
07-Dec-22 12:26 40.811469 -74.190196 274 6018ft 273kts
07-Dec-22 12:27 40.819885 -74.290349 277 6011ft 274kts
07-Dec-22 12:28 40.876784 -74.327922 24 6011ft 271kts
07-Dec-22 12:29 40.944867 -74.281302 27 8355ft 278kts
07-Dec-22 12:30 41.017881 -74.231186 27 11010ft 333kts
07-Dec-22 12:31 41.110329 -74.167795 27 10998ft 391kts
07-Dec-22 12:32 41.175659 -74.061109 74 11022ft 391kts
07-Dec-22 12:33 41.205579 -73.922028 74 11003ft 391kts
07-Dec-22 12:34 41.235748 -73.782868 73 11010ft 390kts
07-Dec-22 12:35 41.266107 -73.644748 73 11010ft 390kts
07-Dec-22 12:36 41.322041 -73.523499 44 11015ft 391kts
07-Dec-22 12:37 41.398272 -73.423381 44 11010ft 391kts
07-Dec-22 12:38 41.476221 -73.319110 45 11010ft 391kts
07-Dec-22 12:39 41.553605 -73.216674 45 11011ft 391kts
07-Dec-22 12:40 41.630531 -73.114021 45 11011ft 391kts
07-Dec-22 12:41 41.706585 -73.010528 45 11010ft 391kts
07-Dec-22 12:42 41.782764 -72.906477 45 11011ft 391kts
07-Dec-22 12:43 41.829707 -72.782402 99 11020ft 390kts
07-Dec-22 12:44 41.756327 -72.689550 174 11005ft 390kts
07-Dec-22 12:44 41.665771 -72.689935 180 11003ft 390kts
07-Dec-22 12:46 41.539159 -72.691024 180 11009ft 390kts
07-Dec-22 12:47 41.430251 -72.691481 180 11009ft 390kts
07-Dec-22 12:48 41.322871 -72.700300 201 11009ft 390kts
07-Dec-22 12:48 41.251373 -72.773005 221 11010ft 390kts
07-Dec-22 12:49 41.169728 -72.866807 220 10504ft 380kts
07-Dec-22 12:51 41.077525 -72.971644 220 9987ft 345kts
07-Dec-22 12:51 41.023186 -73.034610 221 10002ft 290kts
07-Dec-22 12:52 40.962899 -73.105150 221 9973ft 288kts
07-Dec-22 12:53 40.902271 -73.175869 221 8955ft 283kts
07-Dec-22 12:55 40.833715 -73.255607 221 7796ft 278kts
07-Dec-22 12:55 40.793393 -73.319361 263 6768ft 278kts
07-Dec-22 12:56 40.797543 -73.418578 274 5348ft 259kts
07-Dec-22 12:57 40.802154 -73.507829 273 4179ft 225kts
07-Dec-22 12:58 40.805760 -73.581608 273 3869ft 191kts
07-Dec-22 12:59 40.790097 -73.642140 210 3126ft 189kts
07-Dec-22 13:00 40.744916 -73.676861 210 2226ft 187kts
07-Dec-22 13:01 40.699717 -73.712067 210 1570ft 197kts
07-Dec-22 13:02 40.657263 -73.745441 213 427ft 154kts
07-Dec-22 13:03 40.636679 -73.761550 209 22ft 42kts
07-Dec-22 13:04 40.632536 -73.767485 295 21ft 16kts
07-Dec-22 13:05 40.636387 -73.775920 304 19ft 0kts
07-Dec-22 13:06 40.636958 -73.776462 340 20ft 13kts
07-Dec-22 13:07 40.639275 -73.779454 352 19ft 10kts
07-Dec-22 13:08 40.640614 -73.781324 245 19ft 0kts
07-Dec-22 13:09 40.640614 -73.781324 245 19ft 0kts

Navigation Log

Ident Type
Flight plan parsing failed, navigation log unavailable